sensor_id;sensor_type;location;lat;lon;timestamp;pressure;altitude;pressure_sealevel;temperature;humidity
51178;BME280;37243;49.814;8.652;2023-01-28T00:02:18;101044.09;;;27.36;25.75
51178;BME280;37243;49.814;8.652;2023-01-28T00:04:47;101038.09;;;27.34;26.09
51178;BME280;37243;49.814;8.652;2023-01-28T00:07:16;101043.59;;;27.34;26.04
51178;BME280;37243;49.814;8.652;2023-01-28T00:09:44;101038.09;;;27.34;26.01
51178;BME280;37243;49.814;8.652;2023-01-28T00:12:12;101029.34;;;27.32;25.98
51178;BME280;37243;49.814;8.652;2023-01-28T00:14:41;101040.53;;;27.36;25.46
51178;BME280;37243;49.814;8.652;2023-01-28T00:17:13;101038.56;;;27.36;25.68
51178;BME280;37243;49.814;8.652;2023-01-28T00:19:41;101034.22;;;27.35;25.82
51178;BME280;37243;49.814;8.652;2023-01-28T00:22:09;101039.72;;;27.35;25.44
51178;BME280;37243;49.814;8.652;2023-01-28T00:24:38;101032.28;;;27.36;25.58
51178;BME280;37243;49.814;8.652;2023-01-28T00:27:06;101023.19;;;27.35;25.29
51178;BME280;37243;49.814;8.652;2023-01-28T00:29:35;101024.81;;;27.36;25.64
51178;BME280;37243;49.814;8.652;2023-01-28T00:32:03;101024.00;;;27.36;25.72
51178;BME280;37243;49.814;8.652;2023-01-28T00:34:34;101030.94;;;27.33;26.10
51178;BME280;37243;49.814;8.652;2023-01-28T00:37:02;101027.06;;;27.34;25.85
51178;BME280;37243;49.814;8.652;2023-01-28T00:39:31;101024.31;;;27.34;25.76
51178;BME280;37243;49.814;8.652;2023-01-28T00:41:59;101025.44;;;27.33;25.74
51178;BME280;37243;49.814;8.652;2023-01-28T00:44:28;101021.56;;;27.34;26.03
51178;BME280;37243;49.814;8.652;2023-01-28T00:46:56;101021.56;;;27.34;25.73
51178;BME280;37243;49.814;8.652;2023-01-28T00:49:25;101030.94;;;27.33;25.65
51178;BME280;37243;49.814;8.652;2023-01-28T00:51:56;101026.59;;;27.32;25.97
51178;BME280;37243;49.814;8.652;2023-01-28T00:54:24;101030.47;;;27.31;26.04
51178;BME280;37243;49.814;8.652;2023-01-28T00:56:52;101034.84;;;27.32;25.72
51178;BME280;37243;49.814;8.652;2023-01-28T00:59:20;101029.34;;;27.32;25.70
51178;BME280;37243;49.814;8.652;2023-01-28T01:01:49;101032.09;;;27.32;25.65
51178;BME280;37243;49.814;8.652;2023-01-28T01:04:17;101024.47;;;27.29;26.02
51178;BME280;37243;49.814;8.652;2023-01-28T01:06:51;101034.34;;;27.30;25.37
51178;BME280;37243;49.814;8.652;2023-01-28T01:09:22;101029.97;;;27.29;25.73
51178;BME280;37243;49.814;8.652;2023-01-28T01:11:50;101042.59;;;27.30;26.02
51178;BME280;37243;49.814;8.652;2023-01-28T01:14:18;101039.06;;;27.30;26.00
51178;BME280;37243;49.814;8.652;2023-01-28T01:16:47;101038.25;;;27.29;25.73
51178;BME280;37243;49.814;8.652;2023-01-28T01:19:15;101036.59;;;27.28;25.70
51178;BME280;37243;49.814;8.652;2023-01-28T01:21:43;101041.00;;;27.29;25.34
51178;BME280;37243;49.814;8.652;2023-01-28T01:24:14;101046.81;;;27.28;25.46
51178;BME280;37243;49.814;8.652;2023-01-28T01:26:45;101047.31;;;27.30;25.69
51178;BME280;37243;49.814;8.652;2023-01-28T01:29:14;101046.50;;;27.29;26.01
51178;BME280;37243;49.814;8.652;2023-01-28T01:31:42;101047.31;;;27.30;26.04
51178;BME280;37243;49.814;8.652;2023-01-28T01:34:11;101051.19;;;27.29;25.68
51178;BME280;37243;49.814;8.652;2023-01-28T01:36:39;101049.91;;;27.26;25.65
51178;BME280;37243;49.814;8.652;2023-01-28T01:39:10;101051.53;;;27.27;25.86
51178;BME280;37243;49.814;8.652;2023-01-28T01:41:38;101043.56;;;27.26;25.90
51178;BME280;37243;49.814;8.652;2023-01-28T01:47:08;101055.88;;;27.28;25.56
51178;BME280;37243;49.814;8.652;2023-01-28T01:49:37;101056.53;;;27.25;26.04
51178;BME280;37243;49.814;8.652;2023-01-28T01:52:09;101056.53;;;27.25;25.79
51178;BME280;37243;49.814;8.652;2023-01-28T01:54:43;101054.59;;;27.26;25.81
51178;BME280;37243;49.814;8.652;2023-01-28T01:57:18;101057.34;;;27.26;25.45
51178;BME280;37243;49.814;8.652;2023-01-28T01:59:49;101049.06;;;27.26;25.88
51178;BME280;37243;49.814;8.652;2023-01-28T02:02:20;101051.53;;;27.27;25.77
51178;BME280;37243;49.814;8.652;2023-01-28T02:04:49;101058.47;;;27.25;25.40
51178;BME280;37243;49.814;8.652;2023-01-28T02:07:18;101050.19;;;27.25;25.72
51178;BME280;37243;49.814;8.652;2023-01-28T02:09:46;101052.66;;;27.26;25.68
51178;BME280;37243;49.814;8.652;2023-01-28T02:12:17;101059.78;;;27.27;25.38
51178;BME280;37243;49.814;8.652;2023-01-28T02:14:52;101055.41;;;27.26;25.70
51178;BME280;37243;49.814;8.652;2023-01-28T02:17:24;101056.22;;;27.27;25.38
51178;BME280;37243;49.814;8.652;2023-01-28T02:19:56;101058.66;;;27.28;26.07
51178;BME280;37243;49.814;8.652;2023-01-28T02:22:45;101068.34;;;27.26;26.04
51178;BME280;37243;49.814;8.652;2023-01-28T02:28:31;101062.03;;;27.25;26.13
51178;BME280;37243;49.814;8.652;2023-01-28T02:31:07;101056.22;;;27.27;25.75
51178;BME280;37243;49.814;8.652;2023-01-28T02:33:41;101057.03;;;27.27;25.92
51178;BME280;37243;49.814;8.652;2023-01-28T02:36:16;101057.03;;;27.27;25.81
51178;BME280;37243;49.814;8.652;2023-01-28T02:38:51;101058.16;;;27.26;26.18
51178;BME280;37243;49.814;8.652;2023-01-28T02:41:24;101056.53;;;27.25;25.94
51178;BME280;37243;49.814;8.652;2023-01-28T02:44:00;101058.16;;;27.26;25.93
51178;BME280;37243;49.814;8.652;2023-01-28T02:46:34;101056.72;;;27.29;25.41
51178;BME280;37243;49.814;8.652;2023-01-28T02:49:17;101065.59;;;27.26;26.08
51178;BME280;37243;49.814;8.652;2023-01-28T02:52:00;101062.03;;;27.25;25.45
51178;BME280;37243;49.814;8.652;2023-01-28T02:54:36;101058.78;;;27.23;26.21
51178;BME280;37243;49.814;8.652;2023-01-28T02:57:12;101066.72;;;27.25;25.88
51178;BME280;37243;49.814;8.652;2023-01-28T02:59:50;101063.66;;;27.26;25.78
51178;BME280;37243;49.814;8.652;2023-01-28T03:02:29;101069.19;;;27.26;25.47
51178;BME280;37243;49.814;8.652;2023-01-28T03:05:03;101071.13;;;27.26;25.55
51178;BME280;37243;49.814;8.652;2023-01-28T03:07:37;101065.13;;;27.24;25.78
51178;BME280;37243;49.814;8.652;2023-01-28T03:10:08;101064.31;;;27.23;25.85
51178;BME280;37243;49.814;8.652;2023-01-28T03:12:39;101073.06;;;27.25;25.80
51178;BME280;37243;49.814;8.652;2023-01-28T03:15:27;101071.13;;;27.26;25.75
51178;BME280;37243;49.814;8.652;2023-01-28T03:18:11;101069.19;;;27.26;26.18
51178;BME280;37243;49.814;8.652;2023-01-28T03:20:59;101073.06;;;27.25;26.14
51178;BME280;37243;49.814;8.652;2023-01-28T03:23:47;101070.63;;;27.24;25.48
51178;BME280;37243;49.814;8.652;2023-01-28T03:26:30;101068.19;;;27.22;25.49
51178;BME280;37243;49.814;8.652;2023-01-28T03:29:14;101076.97;;;27.24;25.88
51178;BME280;37243;49.814;8.652;2023-01-28T03:32:00;101080.19;;;27.26;26.17
51178;BME280;37243;49.814;8.652;2023-01-28T03:34:41;101076.44;;;27.22;25.79
51178;BME280;37243;49.814;8.652;2023-01-28T03:37:23;101085.22;;;27.24;26.13
51178;BME280;37243;49.814;8.652;2023-01-28T03:39:53;101084.69;;;27.22;25.52
51178;BME280;37243;49.814;8.652;2023-01-28T03:42:22;101086.63;;;27.22;25.47
51178;BME280;37243;49.814;8.652;2023-01-28T03:44:50;101095.72;;;27.22;25.45
51178;BME280;37243;49.814;8.652;2023-01-28T03:47:20;101098.19;;;27.24;25.55
51178;BME280;37243;49.814;8.652;2023-01-28T03:49:50;101092.97;;;27.22;25.80
51178;BME280;37243;49.814;8.652;2023-01-28T03:52:20;101095.72;;;27.22;25.68
51178;BME280;37243;49.814;8.652;2023-01-28T03:54:49;101102.03;;;27.23;26.20
51178;BME280;37243;49.814;8.652;2023-01-28T03:57:20;101097.34;;;27.23;26.05
51178;BME280;37243;49.814;8.652;2023-01-28T03:59:49;101109.19;;;27.24;26.09
51178;BME280;37243;49.814;8.652;2023-01-28T04:02:21;101102.38;;;27.21;25.85
51178;BME280;37243;49.814;8.652;2023-01-28T04:04:51;101109.19;;;27.24;25.89
51178;BME280;37243;49.814;8.652;2023-01-28T04:07:20;101104.00;;;27.22;25.88
51178;BME280;37243;49.814;8.652;2023-01-28T04:09:48;101106.44;;;27.24;25.54
51178;BME280;37243;49.814;8.652;2023-01-28T04:12:16;101102.53;;;27.25;25.55
51178;BME280;37243;49.814;8.652;2023-01-28T04:14:45;101112.44;;;27.26;26.13
51178;BME280;37243;49.814;8.652;2023-01-28T04:17:13;101104.66;;;27.28;25.60
51178;BME280;37243;49.814;8.652;2023-01-28T04:19:44;101114.06;;;27.27;25.37
51178;BME280;37243;49.814;8.652;2023-01-28T04:22:12;101114.91;;;27.27;25.84
51178;BME280;37243;49.814;8.652;2023-01-28T04:24:40;101117.13;;;27.25;25.86
51178;BME280;37243;49.814;8.652;2023-01-28T04:27:09;101109.69;;;27.26;26.22
51178;BME280;37243;49.814;8.652;2023-01-28T04:29:37;101122.00;;;27.28;25.66
51178;BME280;37243;49.814;8.652;2023-01-28T04:32:05;101117.66;;;27.27;25.48
51178;BME280;37243;49.814;8.652;2023-01-28T04:34:33;101124.56;;;27.25;25.53
51178;BME280;37243;49.814;8.652;2023-01-28T04:37:04;101127.31;;;27.25;25.63
51178;BME280;37243;49.814;8.652;2023-01-28T04:39:32;101124.28;;;27.26;25.87
51178;BME280;37243;49.814;8.652;2023-01-28T04:42:00;101121.03;;;27.24;25.73
51178;BME280;37243;49.814;8.652;2023-01-28T04:44:29;101122.34;;;27.27;26.12
51178;BME280;37243;49.814;8.652;2023-01-28T04:46:57;101122.97;;;27.24;25.90
51178;BME280;37243;49.814;8.652;2023-01-28T04:49:25;101111.44;;;27.22;25.56
51178;BME280;37243;49.814;8.652;2023-01-28T04:51:53;101112.25;;;27.22;25.86
51178;BME280;37243;49.814;8.652;2023-01-28T04:54:24;101118.91;;;27.21;25.93
51178;BME280;37243;49.814;8.652;2023-01-28T04:56:52;101120.84;;;27.21;26.12
51178;BME280;37243;49.814;8.652;2023-01-28T04:59:21;101123.59;;;27.21;25.90
51178;BME280;37243;49.814;8.652;2023-01-28T05:01:49;101123.28;;;27.22;25.97
51178;BME280;37243;49.814;8.652;2023-01-28T05:04:17;101128.78;;;27.22;26.02
51178;BME280;37243;49.814;8.652;2023-01-28T05:06:46;101121.97;;;27.20;25.61
51178;BME280;37243;49.814;8.652;2023-01-28T05:09:14;101127.97;;;27.22;25.89
51178;BME280;37243;49.814;8.652;2023-01-28T05:11:45;101127.97;;;27.22;25.55
51178;BME280;37243;49.814;8.652;2023-01-28T05:14:13;101130.41;;;27.23;26.09
51178;BME280;37243;49.814;8.652;2023-01-28T05:16:41;101133.81;;;27.20;25.85
51178;BME280;37243;49.814;8.652;2023-01-28T05:19:10;101142.88;;;27.21;26.42
51178;BME280;37243;49.814;8.652;2023-01-28T05:21:38;101133.47;;;27.22;26.33
51178;BME280;37243;49.814;8.652;2023-01-28T05:24:06;101139.31;;;27.20;26.27
51178;BME280;37243;49.814;8.652;2023-01-28T05:26:35;101135.72;;;27.20;25.56
51178;BME280;37243;49.814;8.652;2023-01-28T05:29:06;101136.56;;;27.20;25.99
51178;BME280;37243;49.814;8.652;2023-01-28T05:31:34;101135.72;;;27.20;25.98
51178;BME280;37243;49.814;8.652;2023-01-28T05:34:03;101140.94;;;27.21;25.65
51178;BME280;37243;49.814;8.652;2023-01-28T05:36:31;101138.69;;;27.23;25.59
51178;BME280;37243;49.814;8.652;2023-01-28T05:38:59;101145.63;;;27.21;25.97
51178;BME280;37243;49.814;8.652;2023-01-28T05:41:27;101150.31;;;27.20;26.26
51178;BME280;37243;49.814;8.652;2023-01-28T05:43:56;101148.38;;;27.21;25.51
51178;BME280;37243;49.814;8.652;2023-01-28T05:46:26;101152.25;;;27.20;25.82
51178;BME280;37243;49.814;8.652;2023-01-28T05:48:55;101146.75;;;27.20;26.38
51178;BME280;37243;49.814;8.652;2023-01-28T05:51:23;101138.97;;;27.22;26.32
51178;BME280;37243;49.814;8.652;2023-01-28T05:53:51;101151.44;;;27.19;26.08
51178;BME280;37243;49.814;8.652;2023-01-28T05:56:20;101155.34;;;27.18;25.84
51178;BME280;37243;49.814;8.652;2023-01-28T05:58:48;101153.72;;;27.17;25.74
51178;BME280;37243;49.814;8.652;2023-01-28T06:01:16;101165.22;;;27.19;26.41
51178;BME280;37243;49.814;8.652;2023-01-28T06:03:47;101168.50;;;27.21;26.03
51178;BME280;37243;49.814;8.652;2023-01-28T06:06:15;101173.47;;;27.19;25.91
51178;BME280;37243;49.814;8.652;2023-01-28T06:08:43;101174.00;;;27.21;26.18
51178;BME280;37243;49.814;8.652;2023-01-28T06:11:12;101176.75;;;27.21;26.24
51178;BME280;37243;49.814;8.652;2023-01-28T06:13:40;101176.75;;;27.21;26.33
51178;BME280;37243;49.814;8.652;2023-01-28T06:16:09;101180.63;;;27.20;25.81
51178;BME280;37243;49.814;8.652;2023-01-28T06:18:37;101191.16;;;27.18;25.69
51178;BME280;37243;49.814;8.652;2023-01-28T06:21:08;101195.53;;;27.19;25.72
51178;BME280;37243;49.814;8.652;2023-01-28T06:23:36;101192.75;;;27.19;25.83
51178;BME280;37243;49.814;8.652;2023-01-28T06:26:04;101196.66;;;27.18;26.09
51178;BME280;37243;49.814;8.652;2023-01-28T06:28:33;101201.03;;;27.19;25.78
51178;BME280;37243;49.814;8.652;2023-01-28T06:31:01;101201.03;;;27.19;26.17
51178;BME280;37243;49.814;8.652;2023-01-28T06:33:29;101198.28;;;27.19;26.35
51178;BME280;37243;49.814;8.652;2023-01-28T06:35:57;101204.94;;;27.18;26.08
51178;BME280;37243;49.814;8.652;2023-01-28T06:38:28;101203.28;;;27.17;26.12
51178;BME280;37243;49.814;8.652;2023-01-28T06:40:57;101202.19;;;27.18;25.84
51178;BME280;37243;49.814;8.652;2023-01-28T06:43:25;101215.94;;;27.18;26.46
51178;BME280;37243;49.814;8.652;2023-01-28T06:45:55;101214.31;;;27.17;25.83
51178;BME280;37243;49.814;8.652;2023-01-28T06:48:24;101213.81;;;27.15;26.05
51178;BME280;37243;49.814;8.652;2023-01-28T06:50:52;101218.19;;;27.16;25.84
51178;BME280;37243;49.814;8.652;2023-01-28T06:53:21;101222.91;;;27.16;26.38
51178;BME280;37243;49.814;8.652;2023-01-28T06:55:51;101222.56;;;27.17;26.11
51178;BME280;37243;49.814;8.652;2023-01-28T06:58:20;101228.09;;;27.17;25.72
51178;BME280;37243;49.814;8.652;2023-01-28T07:00:48;101222.91;;;27.16;25.79
51178;BME280;37243;49.814;8.652;2023-01-28T07:03:16;101233.09;;;27.15;26.13
51178;BME280;37243;49.814;8.652;2023-01-28T07:05:44;101220.44;;;27.14;26.08
51178;BME280;37243;49.814;8.652;2023-01-28T07:08:13;101232.56;;;27.13;25.75
51178;BME280;37243;49.814;8.652;2023-01-28T07:10:42;101226.44;;;27.16;26.50
51178;BME280;37243;49.814;8.652;2023-01-28T07:13:13;101227.59;;;27.15;26.21
51178;BME280;37243;49.814;8.652;2023-01-28T07:15:41;101235.84;;;27.15;26.40
51178;BME280;37243;49.814;8.652;2023-01-28T07:18:09;101237.47;;;27.16;26.21
51178;BME280;37243;49.814;8.652;2023-01-28T07:20:37;101233.41;;;27.14;25.63
51178;BME280;37243;49.814;8.652;2023-01-28T07:23:06;101230.00;;;27.17;25.75
51178;BME280;37243;49.814;8.652;2023-01-28T07:25:34;101239.44;;;27.16;25.85
51178;BME280;37243;49.814;8.652;2023-01-28T07:28:03;101229.53;;;27.15;25.78
51178;BME280;37243;49.814;8.652;2023-01-28T07:30:34;101233.09;;;27.15;25.92
51178;BME280;37243;49.814;8.652;2023-01-28T07:33:03;101235.31;;;27.13;25.59
51178;BME280;37243;49.814;8.652;2023-01-28T07:35:31;101238.59;;;27.15;25.31
51178;BME280;37243;49.814;8.652;2023-01-28T07:38:00;101241.34;;;27.15;25.54
51178;BME280;37243;49.814;8.652;2023-01-28T07:40:28;101232.28;;;27.15;25.36
51178;BME280;37243;49.814;8.652;2023-01-28T07:42:57;101236.97;;;27.14;25.69
51178;BME280;37243;49.814;8.652;2023-01-28T07:45:26;101250.25;;;27.12;25.79
51178;BME280;37243;49.814;8.652;2023-01-28T07:48:00;101236.47;;;27.12;25.30
51178;BME280;37243;49.814;8.652;2023-01-28T07:50:30;101244.75;;;27.12;25.63
51178;BME280;37243;49.814;8.652;2023-01-28T07:53:00;101242.47;;;27.14;25.22
51178;BME280;37243;49.814;8.652;2023-01-28T07:55:30;101245.22;;;27.14;25.57
51178;BME280;37243;49.814;8.652;2023-01-28T07:58:01;101247.97;;;27.14;25.27
51178;BME280;37243;49.814;8.652;2023-01-28T08:00:31;101254.59;;;27.13;25.50
51178;BME280;37243;49.814;8.652;2023-01-28T08:03:04;101258.19;;;27.14;25.01
51178;BME280;37243;49.814;8.652;2023-01-28T08:05:37;101260.13;;;27.13;25.72
51178;BME280;37243;49.814;8.652;2023-01-28T08:08:08;101255.75;;;27.12;25.50
51178;BME280;37243;49.814;8.652;2023-01-28T08:10:37;101258.19;;;27.14;25.53
51178;BME280;37243;49.814;8.652;2023-01-28T08:13:06;101262.56;;;27.15;25.38
51178;BME280;37243;49.814;8.652;2023-01-28T08:15:37;101267.75;;;27.16;25.09
51178;BME280;37243;49.814;8.652;2023-01-28T08:18:09;101273.28;;;27.16;25.73
51178;BME280;37243;49.814;8.652;2023-01-28T08:20:38;101267.25;;;27.14;25.03
51178;BME280;37243;49.814;8.652;2023-01-28T08:23:08;101273.88;;;27.13;25.36
51178;BME280;37243;49.814;8.652;2023-01-28T08:25:38;101270.84;;;27.15;25.59
51178;BME280;37243;49.814;8.652;2023-01-28T08:28:07;101273.28;;;27.16;25.31
51178;BME280;37243;49.814;8.652;2023-01-28T08:30:37;101279.09;;;27.15;24.92
51178;BME280;37243;49.814;8.652;2023-01-28T08:33:10;101278.28;;;27.14;25.41
51178;BME280;37243;49.814;8.652;2023-01-28T08:35:39;101281.88;;;27.15;25.41
51178;BME280;37243;49.814;8.652;2023-01-28T08:38:09;101278.28;;;27.14;24.97
51178;BME280;37243;49.814;8.652;2023-01-28T08:40:38;101277.78;;;27.12;25.69
51178;BME280;37243;49.814;8.652;2023-01-28T08:43:06;101271.47;;;27.12;25.70
51178;BME280;37243;49.814;8.652;2023-01-28T08:45:34;101282.47;;;27.12;25.42
51178;BME280;37243;49.814;8.652;2023-01-28T08:48:04;101281.38;;;27.13;25.08
51178;BME280;37243;49.814;8.652;2023-01-28T08:50:38;101279.41;;;27.13;25.72
51178;BME280;37243;49.814;8.652;2023-01-28T08:53:10;101282.16;;;27.13;25.38
51178;BME280;37243;49.814;8.652;2023-01-28T08:55:38;101277.78;;;27.12;25.69
51178;BME280;37243;49.814;8.652;2023-01-28T08:58:09;101282.97;;;27.14;25.37
51178;BME280;37243;49.814;8.652;2023-01-28T09:00:38;101286.56;;;27.14;25.14
51178;BME280;37243;49.814;8.652;2023-01-28T09:03:07;101277.47;;;27.14;25.67
51178;BME280;37243;49.814;8.652;2023-01-28T09:05:38;101287.88;;;27.17;25.70
51178;BME280;37243;49.814;8.652;2023-01-28T09:08:09;101293.69;;;27.15;25.10
51178;BME280;37243;49.814;8.652;2023-01-28T09:10:38;101289.81;;;27.16;25.54
51178;BME280;37243;49.814;8.652;2023-01-28T09:13:08;101300.81;;;27.16;25.66
51178;BME280;37243;49.814;8.652;2023-01-28T09:15:37;101300.66;;;27.13;25.51
51178;BME280;37243;49.814;8.652;2023-01-28T09:18:05;101308.59;;;27.14;25.99
51178;BME280;37243;49.814;8.652;2023-01-28T09:20:34;101305.00;;;27.14;25.56
51178;BME280;37243;49.814;8.652;2023-01-28T09:23:05;101309.69;;;27.13;25.60
51178;BME280;37243;49.814;8.652;2023-01-28T09:25:34;101315.72;;;27.15;26.04
51178;BME280;37243;49.814;8.652;2023-01-28T09:28:03;101319.59;;;27.14;26.09
51178;BME280;37243;49.814;8.652;2023-01-28T09:30:32;101316.34;;;27.12;26.01
51178;BME280;37243;49.814;8.652;2023-01-28T09:33:00;101316.34;;;27.12;26.12
51178;BME280;37243;49.814;8.652;2023-01-28T09:35:28;101324.28;;;27.14;25.96
51178;BME280;37243;49.814;8.652;2023-01-28T09:37:57;101317.97;;;27.13;26.01
51178;BME280;37243;49.814;8.652;2023-01-28T09:40:33;101321.88;;;27.12;25.89
51178;BME280;37243;49.814;8.652;2023-01-28T09:43:25;101327.03;;;27.14;25.87
51178;BME280;37243;49.814;8.652;2023-01-28T09:45:58;101313.28;;;27.14;26.31
51178;BME280;37243;49.814;8.652;2023-01-28T09:48:29;101317.16;;;27.13;25.57
51178;BME280;37243;49.814;8.652;2023-01-28T09:51:07;101325.72;;;27.11;25.49
51178;BME280;37243;49.814;8.652;2023-01-28T09:53:39;101317.47;;;27.11;25.89
51178;BME280;37243;49.814;8.652;2023-01-28T09:56:15;101321.03;;;27.12;25.56
51178;BME280;37243;49.814;8.652;2023-01-28T09:58:49;101331.25;;;27.11;26.23
51178;BME280;37243;49.814;8.652;2023-01-28T10:01:33;101326.22;;;27.13;26.21
51178;BME280;37243;49.814;8.652;2023-01-28T10:04:12;101333.69;;;27.13;26.19
51178;BME280;37243;49.814;8.652;2023-01-28T10:06:54;101329.81;;;27.14;25.51
51178;BME280;37243;49.814;8.652;2023-01-28T10:09:34;101330.75;;;27.09;25.93
51178;BME280;37243;49.814;8.652;2023-01-28T10:12:23;101338.19;;;27.09;25.92
51178;BME280;37243;49.814;8.652;2023-01-28T10:15:17;101338.19;;;27.09;25.65
51178;BME280;37243;49.814;8.652;2023-01-28T10:17:48;101330.41;;;27.11;26.36
51178;BME280;37243;49.814;8.652;2023-01-28T10:20:21;101335.09;;;27.10;26.23
51178;BME280;37243;49.814;8.652;2023-01-28T10:23:01;101333.50;;;27.09;25.96
51178;BME280;37243;49.814;8.652;2023-01-28T10:25:32;101332.69;;;27.09;26.07
51178;BME280;37243;49.814;8.652;2023-01-28T10:28:09;101333.50;;;27.09;26.25
51178;BME280;37243;49.814;8.652;2023-01-28T10:30:42;101339.63;;;27.06;26.27
51178;BME280;37243;49.814;8.652;2023-01-28T10:33:17;101327.78;;;27.05;26.22
51178;BME280;37243;49.814;8.652;2023-01-28T10:35:46;101336.03;;;27.05;26.04
51178;BME280;37243;49.814;8.652;2023-01-28T10:38:18;101337.69;;;27.07;26.01
51178;BME280;37243;49.814;8.652;2023-01-28T10:40:47;101336.53;;;27.08;26.16
51178;BME280;37243;49.814;8.652;2023-01-28T10:43:21;101336.53;;;27.08;25.74
51178;BME280;37243;49.814;8.652;2023-01-28T10:45:55;101341.56;;;27.05;26.23
51178;BME280;37243;49.814;8.652;2023-01-28T10:48:28;101345.63;;;27.08;26.41
51178;BME280;37243;49.814;8.652;2023-01-28T10:50:58;101334.94;;;27.07;25.99
51178;BME280;37243;49.814;8.652;2023-01-28T10:53:34;101334.59;;;27.08;26.26
51178;BME280;37243;49.814;8.652;2023-01-28T10:56:04;101337.38;;;27.08;25.68
51178;BME280;37243;49.814;8.652;2023-01-28T10:58:52;101336.38;;;27.04;26.26
51178;BME280;37243;49.814;8.652;2023-01-28T11:01:22;101345.13;;;27.06;26.44
51178;BME280;37243;49.814;8.652;2023-01-28T11:03:53;101342.88;;;27.08;26.26
51178;BME280;37243;49.814;8.652;2023-01-28T11:06:24;101339.28;;;27.08;26.32
51178;BME280;37243;49.814;8.652;2023-01-28T11:08:53;101345.94;;;27.07;25.76
51178;BME280;37243;49.814;8.652;2023-01-28T11:11:23;101344.00;;;27.07;25.98
51178;BME280;37243;49.814;8.652;2023-01-28T11:13:55;101336.53;;;27.08;26.23
51178;BME280;37243;49.814;8.652;2023-01-28T11:16:25;101344.50;;;27.09;26.02
51178;BME280;37243;49.814;8.652;2023-01-28T11:18:59;101350.03;;;27.09;26.09
51178;BME280;37243;49.814;8.652;2023-01-28T11:21:30;101344.50;;;27.09;25.65
51178;BME280;37243;49.814;8.652;2023-01-28T11:24:01;101339.00;;;27.09;26.35
51178;BME280;37243;49.814;8.652;2023-01-28T11:26:31;101342.88;;;27.08;25.65
51178;BME280;37243;49.814;8.652;2023-01-28T11:29:03;101345.13;;;27.06;26.09
51178;BME280;37243;49.814;8.652;2023-01-28T11:31:38;101339.00;;;27.09;26.24
51178;BME280;37243;49.814;8.652;2023-01-28T11:34:14;101344.81;;;27.08;26.46
51178;BME280;37243;49.814;8.652;2023-01-28T11:36:49;101345.13;;;27.06;25.61
51178;BME280;37243;49.814;8.652;2023-01-28T11:39:22;101349.50;;;27.07;26.45
51178;BME280;37243;49.814;8.652;2023-01-28T11:41:53;101341.22;;;27.07;25.76
51178;BME280;37243;49.814;8.652;2023-01-28T11:44:26;101339.81;;;27.10;25.56
51178;BME280;37243;49.814;8.652;2023-01-28T11:47:04;101342.06;;;27.08;26.28
51178;BME280;37243;49.814;8.652;2023-01-28T11:49:43;101342.06;;;27.08;25.68
51178;BME280;37243;49.814;8.652;2023-01-28T11:52:20;101338.47;;;27.07;26.00
51178;BME280;37243;49.814;8.652;2023-01-28T11:55:00;101332.97;;;27.07;26.28
51178;BME280;37243;49.814;8.652;2023-01-28T11:57:36;101338.19;;;27.09;26.21
51178;BME280;37243;49.814;8.652;2023-01-28T12:00:25;101338.19;;;27.09;25.67
51178;BME280;37243;49.814;8.652;2023-01-28T12:03:04;101336.25;;;27.09;25.96
51178;BME280;37243;49.814;8.652;2023-01-28T12:05:49;101336.53;;;27.08;26.16
51178;BME280;37243;49.814;8.652;2023-01-28T12:08:21;101333.50;;;27.09;26.38
51178;BME280;37243;49.814;8.652;2023-01-28T12:11:18;101326.66;;;27.07;25.96
51178;BME280;37243;49.814;8.652;2023-01-28T12:14:19;101337.38;;;27.08;25.84
51178;BME280;37243;49.814;8.652;2023-01-28T12:17:15;101322.28;;;27.05;26.62
51178;BME280;37243;49.814;8.652;2023-01-28T12:19:57;101324.41;;;27.09;26.20
51178;BME280;37243;49.814;8.652;2023-01-28T12:22:49;101332.69;;;27.09;26.04
51178;BME280;37243;49.814;8.652;2023-01-28T12:25:32;101320.22;;;27.11;26.58
51178;BME280;37243;49.814;8.652;2023-01-28T12:28:07;101322.97;;;27.11;26.42
51178;BME280;37243;49.814;8.652;2023-01-28T12:30:54;101326.34;;;27.08;26.42
51178;BME280;37243;49.814;8.652;2023-01-28T12:33:44;101324.22;;;27.05;26.54
51178;BME280;37243;49.814;8.652;2023-01-28T12:36:28;101320.34;;;27.06;26.41
51178;BME280;37243;49.814;8.652;2023-01-28T12:39:09;101331.03;;;27.08;26.43
51178;BME280;37243;49.814;8.652;2023-01-28T12:41:41;101323.31;;;27.10;25.69
51178;BME280;37243;49.814;8.652;2023-01-28T12:44:13;101326.34;;;27.08;26.13
51178;BME280;37243;49.814;8.652;2023-01-28T12:46:47;101322.78;;;27.08;26.30
51178;BME280;37243;49.814;8.652;2023-01-28T12:49:22;101319.72;;;27.09;25.74
51178;BME280;37243;49.814;8.652;2023-01-28T12:51:58;101319.41;;;27.11;26.58
51178;BME280;37243;49.814;8.652;2023-01-28T12:54:32;101319.19;;;27.07;26.17
51178;BME280;37243;49.814;8.652;2023-01-28T12:57:02;101318.41;;;27.07;25.84
51178;BME280;37243;49.814;8.652;2023-01-28T12:59:35;101315.34;;;27.08;26.33
51178;BME280;37243;49.814;8.652;2023-01-28T13:02:21;101318.41;;;27.07;26.07
51178;BME280;37243;49.814;8.652;2023-01-28T13:04:59;101305.44;;;27.07;25.84
51178;BME280;37243;49.814;8.652;2023-01-28T13:07:34;101315.94;;;27.05;26.10
51178;BME280;37243;49.814;8.652;2023-01-28T13:10:11;101312.91;;;27.07;26.07
51178;BME280;37243;49.814;8.652;2023-01-28T13:12:42;101319.19;;;27.07;25.78
51178;BME280;37243;49.814;8.652;2023-01-28T13:15:12;101309.81;;;27.08;26.32
51178;BME280;37243;49.814;8.652;2023-01-28T13:17:53;101315.34;;;27.08;25.96
51178;BME280;37243;49.814;8.652;2023-01-28T13:20:44;101324.69;;;27.07;26.03
51178;BME280;37243;49.814;8.652;2023-01-28T13:23:22;101322.47;;;27.09;25.96